Classifiche di sempre
Migliori tempi personali validi di atleta tra tutti gli eventi e le stagioni. Ogni atleta compare una sola volta per divisione.
Cerca per nome e apri la pagina in cui è classificato questo record di divisione.
104,510 atleti in classifica
| Pos. | Pos. AG | Atleta | Nazionalità | Categoria età | TempoMiglior tempo | Distacco |
|---|---|---|---|---|---|---|
| 85251 | #11941 | Natalia Lopez TorresMEX · W 16-24 · AG #11941 | MEX | W 16-24 | 1:53:56 | +74:20 |
| 85252 | #10983 | Helene JandiaFRA · W 40-44 · AG #10983 | FRA | W 40-44 | 1:53:56 | +74:20 |
| 85253 | #20761 | Jule SliwinskiGER · W 25-29 · AG #20761 | GER | W 25-29 | 1:53:57 | +74:21 |
| 85254 | #20762 | Alexandra SchurrAUS · W 25-29 · AG #20762 | AUS | W 25-29 | 1:53:57 | +74:21 |
| 85255 | #20763 | Solene GenesteFRA · W 25-29 · AG #20763 | FRA | W 25-29 | 1:53:57 | +74:21 |
| 85256 | #20765 | Gabriela SalinasMEX · W 25-29 · AG #20765 | MEX | W 25-29 | 1:53:57 | +74:21 |
| 85257 | #2902 | Ee Ling LimSIN · W 50-54 · AG #2902 | SIN | W 50-54 | 1:53:57 | +74:21 |
| 85258 | #15729 | Olga LavrovaUKR · W 35-39 · AG #15729 | UKR | W 35-39 | 1:53:57 | +74:21 |
| 85259 | #20766 | Mara Van Den AssemNED · W 25-29 · AG #20766 | NED | W 25-29 | 1:53:57 | +74:21 |
| 85260 | #20490 | Wai Shan PongHKG · W 30-34 · AG #20490 | HKG | W 30-34 | 1:53:57 | +74:21 |
| 85261 | #15730 | Michelle ClancyGBR · W 35-39 · AG #15730 | GBR | W 35-39 | 1:53:57 | +74:21 |
| 85262 | #20767 | Caitlin BarnfieldAUS · W 25-29 · AG #20767 | AUS | W 25-29 | 1:53:57 | +74:21 |
| 85263 | #20764 | Carmen HeinlyUSA · W 25-29 · AG #20764 | USA | W 25-29 | 1:53:57 | +74:21 |
| 85264 | #6140 | Elizabeth LangUSA · W 45-49 · AG #6140 | USA | W 45-49 | 1:53:57 | +74:21 |
| 85265 | #20768 | Han Yi KohSIN · W 25-29 · AG #20768 | SIN | W 25-29 | 1:53:57 | +74:21 |
| 85266 | #6141 | Danielle HurtadoUSA · W 45-49 · AG #6141 | USA | W 45-49 | 1:53:57 | +74:21 |
| 85267 | #20491 | Tiffany ChinUSA · W 30-34 · AG #20491 | USA | W 30-34 | 1:53:57 | +74:21 |
| 85268 | #20489 | Laura DunphyGBR · W 30-34 · AG #20489 | GBR | W 30-34 | 1:53:57 | +74:21 |
| 85269 | #11943 | Bianca SieghartGER · W 16-24 · AG #11943 | GER | W 16-24 | 1:53:57 | +74:21 |
| 85270 | #15731 | Sofía Escobar ValdezMEX · W 35-39 · AG #15731 | MEX | W 35-39 | 1:53:57 | +74:21 |
| 85271 | #15732 | Blythe LarsonUSA · W 35-39 · AG #15732 | USA | W 35-39 | 1:53:57 | +74:21 |
| 85272 | #20492 | Alexcia KimbroUSA · W 30-34 · AG #20492 | USA | W 30-34 | 1:53:57 | +74:21 |
| 85273 | #11942 | Chiara EvangelistiITA · W 16-24 · AG #11942 | ITA | W 16-24 | 1:53:57 | +74:21 |
| 85274 | #15733 | Jessica ReischerUSA · W 35-39 · AG #15733 | USA | W 35-39 | 1:53:57 | +74:21 |
| 85275 | #11944 | Georgie GreshamGBR · W 16-24 · AG #11944 | GBR | W 16-24 | 1:53:57 | +74:21 |
Pagina 3,411 di 4,181